Time;durP1;ratioP1;P1;durP2;ratioP2;P2;SDS_P1;SDS_P2;PMS_P1;PMS_P2;Temp;Humidity;BMP_temperature;BMP_pressure;BME280_temperature;BME280_humidity;BME280_pressure;Samples;Min_cycle;Max_cycle;Signal;HPM_P1;HPM_P2
2022/12/07 00:01:12;;;;;;;7.47;6.63;;;5.40;37.60;;;;;;4972322;28;20436;-65
2022/12/07 00:03:39;;;;;;;8.07;6.40;;;5.40;4.00;;;;;;4974565;28;20409;-64
2022/12/07 00:06:07;;;;;;;10.13;6.87;;;5.40;24.50;;;;;;4973652;28;20455;-65
2022/12/07 00:08:34;;;;;;;7.70;6.30;;;5.30;1.00;;;;;;4974435;28;20420;-66
2022/12/07 00:11:05;;;;;;;10.20;6.90;;;5.30;32.30;;;;;;4972529;28;20440;-65
2022/12/07 00:13:32;;;;;;;9.60;8.00;;;5.40;17.80;;;;;;4973843;28;20408;-66
2022/12/07 00:16:10;;;;;;;15.80;7.10;;;5.40;1.00;;;;;;4973923;28;20507;-65
2022/12/07 00:18:36;;;;;;;9.37;7.20;;;5.50;1.00;;;;;;4973819;28;20436;-63
2022/12/07 00:21:16;;;;;;;10.40;7.07;;;5.50;1.00;;;;;;4972756;28;20939;-66
2022/12/07 00:23:45;;;;;;;12.03;8.60;;;5.50;1.00;;;;;;4974096;28;20545;-65
2022/12/07 00:26:14;;;;;;;10.43;8.40;;;5.50;1.00;;;;;;4973256;28;20495;-66
2022/12/07 00:28:40;;;;;;;9.57;8.30;;;5.50;1.00;;;;;;4973720;28;20544;-66
2022/12/07 00:31:09;;;;;;;8.77;7.63;;;5.60;1.00;;;;;;4972770;28;20413;-65
2022/12/07 00:33:36;;;;;;;8.70;7.30;;;5.60;1.00;;;;;;4961227;28;20496;-64
2022/12/07 00:36:09;;;;;;;8.50;7.60;;;5.50;1.00;;;;;;4953935;28;20469;-66
2022/12/07 00:38:36;;;;;;;8.03;7.20;;;5.50;1.00;;;;;;4953038;28;20436;-64
2022/12/07 00:41:05;;;;;;;9.43;7.30;;;5.50;1.00;;;;;;4952711;28;20418;-64
2022/12/07 00:43:31;;;;;;;8.70;7.13;;;5.40;1.00;;;;;;4953603;28;20417;-64
2022/12/07 00:45:57;;;;;;;11.10;7.17;;;5.40;1.00;;;;;;4953949;28;20414;-64
2022/12/07 00:48:24;;;;;;;8.87;7.07;;;5.40;1.00;;;;;;4953838;28;20970;-63
2022/12/07 00:50:51;;;;;;;9.10;7.23;;;5.40;1.00;;;;;;4952978;28;20408;-65
2022/12/07 00:53:17;;;;;;;7.80;7.00;;;5.50;1.00;;;;;;4954116;28;20406;-66
2022/12/07 00:55:43;;;;;;;14.57;9.43;;;5.50;1.00;;;;;;4953148;28;20417;-66
2022/12/07 00:58:09;;;;;;;12.53;8.20;;;5.40;1.00;;;;;;4953962;28;20513;-64
2022/12/07 01:00:40;;;;;;;10.10;8.70;;;5.40;1.00;;;;;;4952714;28;20501;-66
2022/12/07 01:03:08;;;;;;;9.93;7.77;;;5.50;1.00;;;;;;4954044;28;20190;-65
2022/12/07 01:05:34;;;;;;;12.63;7.40;;;5.50;1.00;;;;;;4953609;28;20410;-64
2022/12/07 01:08:01;;;;;;;8.47;7.20;;;5.50;1.00;;;;;;4953644;28;20485;-66
2022/12/07 01:10:27;;;;;;;9.20;7.60;;;5.50;1.00;;;;;;4952444;28;20178;-64
2022/12/07 01:12:53;;;;;;;8.00;7.13;;;5.50;1.00;;;;;;4952669;28;20446;-64
2022/12/07 01:15:19;;;;;;;8.33;7.30;;;5.50;1.00;;;;;;4953367;28;20453;-64
2022/12/07 01:17:44;;;;;;;10.87;7.90;;;5.50;1.00;;;;;;4953363;28;20910;-64
2022/12/07 01:20:11;;;;;;;8.87;7.77;;;5.40;1.00;;;;;;4952912;28;20174;-63
2022/12/07 01:22:38;;;;;;;8.80;7.90;;;5.50;1.00;;;;;;4952693;28;20175;-64
2022/12/07 01:25:05;;;;;;;12.27;8.90;;;5.50;1.00;;;;;;4952860;28;20496;-63
2022/12/07 01:27:32;;;;;;;8.37;7.17;;;5.50;1.00;;;;;;4953219;28;20521;-64
2022/12/07 01:29:57;;;;;;;10.17;7.87;;;5.40;1.00;;;;;;4952705;28;20438;-64
2022/12/07 01:32:23;;;;;;;10.37;9.27;;;5.50;1.00;;;;;;4955032;28;20421;-64
2022/12/07 01:34:48;;;;;;;11.70;8.23;;;5.50;1.00;;;;;;4971547;28;20184;-64
2022/12/07 01:37:14;;;;;;;9.87;8.60;;;5.60;1.00;;;;;;4972281;28;20205;-63
2022/12/07 01:39:41;;;;;;;17.27;8.50;;;5.60;1.00;;;;;;4971947;28;20192;-64
2022/12/07 01:42:10;;;;;;;9.00;7.40;;;5.60;1.00;;;;;;4971205;28;20187;-64
2022/12/07 01:45:13;;;;;;;14.60;9.67;;;5.50;1.00;;;;;;4971905;28;20413;-63
2022/12/07 01:47:40;;;;;;;11.30;8.43;;;5.50;1.00;;;;;;4971569;28;20463;-63
2022/12/07 01:50:06;;;;;;;14.17;9.50;;;5.50;1.00;;;;;;4971741;28;20500;-64
2022/12/07 01:52:35;;;;;;;11.83;9.57;;;5.50;1.00;;;;;;4971661;28;20922;-63
2022/12/07 01:55:10;;;;;;;10.40;8.07;;;5.60;1.00;;;;;;4971439;28;20974;-63
2022/12/07 01:57:40;;;;;;;10.13;8.10;;;5.50;1.00;;;;;;4971899;28;20464;-63
2022/12/07 02:00:08;;;;;;;11.10;8.93;;;5.50;1.00;;;;;;4971322;28;20904;-63
2022/12/07 02:02:41;;;;;;;13.23;8.83;;;5.50;1.00;;;;;;4950763;29;20469;-64
2022/12/07 02:05:07;;;;;;;11.83;8.87;;;5.50;1.00;;;;;;4952527;29;20417;-64
2022/12/07 02:07:36;;;;;;;10.20;8.90;;;5.60;1.00;;;;;;4952919;29;20441;-64
2022/12/07 02:10:17;;;;;;;15.20;8.87;;;5.60;1.00;;;;;;4952182;29;20864;-64
2022/12/07 02:12:46;;;;;;;14.03;9.63;;;5.50;1.00;;;;;;4952337;28;20864;-64
2022/12/07 02:15:12;;;;;;;12.37;9.73;;;5.50;1.00;;;;;;4952253;29;20480;-64
2022/12/07 02:18:09;;;;;;;14.00;8.50;;;5.60;1.00;;;;;;4952313;29;20462;-64
2022/12/07 02:21:11;;;;;;;11.30;9.13;;;5.60;1.00;;;;;;4930667;28;20449;-64
2022/12/07 02:23:51;;;;;;;10.97;8.50;;;5.70;1.00;;;;;;4929828;28;20418;-64
2022/12/07 02:26:35;;;;;;;13.90;10.67;;;5.60;1.00;;;;;;4951770;29;20429;-65
2022/12/07 02:29:07;;;;;;;12.63;9.80;;;5.60;1.00;;;;;;4952035;29;20417;-65
2022/12/07 02:31:32;;;;;;;19.50;11.20;;;5.60;1.00;;;;;;4951449;28;20426;-65
2022/12/07 02:34:09;;;;;;;15.17;11.70;;;5.70;1.00;;;;;;4967153;28;20511;-65
2022/12/07 02:36:41;;;;;;;12.90;10.17;;;5.70;1.00;;;;;;4971172;28;20201;-65
2022/12/07 02:39:13;;;;;;;17.10;11.40;;;5.70;1.00;;;;;;4969933;28;20405;-65
2022/12/07 02:41:48;;;;;;;20.37;10.60;;;5.70;1.00;;;;;;4969892;28;20775;-65
2022/12/07 02:44:19;;;;;;;15.83;11.20;;;5.70;1.00;;;;;;4970904;28;20417;-65
2022/12/07 02:46:57;;;;;;;17.50;10.50;;;5.70;1.00;;;;;;4995210;23;20485;-64
2022/12/07 02:49:25;;;;;;;16.40;11.97;;;5.70;1.00;;;;;;4989570;28;20428;-67
2022/12/07 02:51:53;;;;;;;18.10;12.50;;;5.70;1.00;;;;;;4990177;28;20507;-67
2022/12/07 02:54:20;;;;;;;18.63;10.80;;;5.70;1.00;;;;;;4990863;28;21083;-68
2022/12/07 02:57:09;;;;;;;24.30;11.33;;;5.70;1.00;;;;;;4990525;28;20454;-67
2022/12/07 02:59:40;;;;;;;18.30;10.33;;;5.70;1.00;;;;;;4969587;28;20723;-68
2022/12/07 03:02:17;;;;;;;15.37;12.60;;;5.70;1.00;;;;;;4989961;28;20404;-67
2022/12/07 03:04:52;;;;;;;15.70;10.60;;;5.60;1.00;;;;;;4990589;28;20945;-67
2022/12/07 03:07:47;;;;;;;28.50;11.33;;;5.80;1.00;;;;;;4990962;28;20908;-67
2022/12/07 03:10:35;;;;;;;21.17;11.13;;;5.70;1.00;;;;;;4989929;28;20422;-66
2022/12/07 03:13:00;;;;;;;14.40;10.40;;;5.60;1.00;;;;;;4991045;28;20440;-67
2022/12/07 03:15:56;;;;;;;22.30;10.30;;;5.60;1.00;;;;;;4990490;28;20439;-66
2022/12/07 03:18:24;;;;;;;16.43;10.20;;;5.60;1.00;;;;;;4975049;28;20240;-67
2022/12/07 03:20:53;;;;;;;15.80;10.93;;;5.60;1.00;;;;;;4989818;28;20404;-68
2022/12/07 03:23:21;;;;;;;21.70;12.60;;;5.60;1.00;;;;;;4991123;28;20522;-68
2022/12/07 03:25:52;;;;;;;22.10;10.73;;;5.60;1.00;;;;;;4990369;28;20447;-67
2022/12/07 03:28:22;;;;;;;21.10;10.17;;;5.60;1.00;;;;;;5002063;28;20435;-66
2022/12/07 03:30:54;;;;;;;15.77;11.10;;;5.60;1.00;;;;;;4989645;28;21209;-66
2022/12/07 03:33:22;;;;;;;12.17;9.43;;;5.60;1.00;;;;;;4990656;28;20419;-66
2022/12/07 03:36:11;;;;;;;13.77;10.30;;;5.60;1.00;;;;;;4992626;28;20448;-67
2022/12/07 03:38:56;;;;;;;13.47;9.80;;;5.60;1.00;;;;;;4993364;28;20531;-67
2022/12/07 03:41:29;;;;;;;12.50;10.67;;;5.60;1.00;;;;;;4993209;28;20458;-66
2022/12/07 03:43:56;;;;;;;12.67;9.37;;;5.60;1.00;;;;;;4994225;28;20412;-67
2022/12/07 03:46:51;;;;;;;10.87;9.00;;;5.30;1.00;;;;;;4994345;28;20456;-67
2022/12/07 03:49:41;;;;;;;14.13;9.80;;;5.30;1.00;;;;;;4980103;28;20444;-67
2022/12/07 03:52:40;;;;;;;13.23;10.50;;;5.40;11.20;;;;;;4992270;28;20440;-67
2022/12/07 03:55:20;;;;;;;13.00;10.00;;;5.40;63.80;;;;;;4992415;28;21158;-64
2022/12/07 03:57:49;;;;;;;14.77;9.40;;;5.50;25.50;;;;;;4992667;28;20490;-62
2022/12/07 04:00:15;;;;;;;11.40;9.60;;;5.60;86.70;;;;;;4992434;28;20438;-64
2022/12/07 04:02:42;;;;;;;10.20;8.83;;;5.50;27.00;;;;;;4992887;28;20897;-61
2022/12/07 04:05:10;;;;;;;10.90;8.30;;;5.50;99.90;;;;;;4992495;28;20411;-62
2022/12/07 04:07:35;;;;;;;11.50;9.03;;;5.50;91.20;;;;;;4992296;28;20474;-63
2022/12/07 04:10:02;;;;;;;13.40;9.50;;;5.40;16.30;;;;;;4992029;28;21339;-65
2022/12/07 04:12:27;;;;;;;11.77;8.53;;;5.40;2.80;;;;;;4992205;28;20173;-64
2022/12/07 04:14:53;;;;;;;12.83;8.70;;;5.50;1.00;;;;;;4992096;28;20434;-66
2022/12/07 04:17:18;;;;;;;14.50;7.93;;;5.50;1.00;;;;;;4992330;28;20286;-68
2022/12/07 04:19:44;;;;;;;11.60;8.67;;;5.50;1.00;;;;;;4992450;28;20187;-67
2022/12/07 04:22:10;;;;;;;11.23;8.00;;;5.50;1.00;;;;;;4991544;28;20224;-66
2022/12/07 04:24:36;;;;;;;15.47;8.63;;;5.30;1.00;;;;;;4992061;28;20252;-68
2022/12/07 04:27:01;;;;;;;12.63;7.70;;;5.40;1.00;;;;;;4992018;28;20538;-66
2022/12/07 04:29:27;;;;;;;8.60;7.60;;;5.30;1.00;;;;;;4992380;28;20216;-67
2022/12/07 04:31:53;;;;;;;9.37;8.00;;;5.30;1.00;;;;;;4990271;28;20177;-67
2022/12/07 04:34:19;;;;;;;11.30;8.73;;;5.30;1.00;;;;;;4992076;28;20758;-68
2022/12/07 04:36:46;;;;;;;19.33;9.20;;;5.30;1.00;;;;;;4991950;28;20209;-69
2022/12/07 04:39:21;;;;;;;9.13;8.13;;;5.40;1.00;;;;;;4992207;28;20413;-67
2022/12/07 04:41:47;;;;;;;9.93;8.27;;;5.40;1.00;;;;;;4991083;28;20586;-67
2022/12/07 04:44:14;;;;;;;9.10;7.23;;;5.40;1.00;;;;;;4992264;28;20444;-68
2022/12/07 04:46:41;;;;;;;10.33;8.13;;;5.50;1.00;;;;;;4992197;28;20749;-68
2022/12/07 04:49:07;;;;;;;15.60;11.87;;;5.40;1.00;;;;;;4953944;28;1146582;-68
2022/12/07 04:51:32;;;;;;;16.67;12.20;;;5.40;1.00;;;;;;4992576;28;20235;-67
2022/12/07 04:53:58;;;;;;;11.00;8.80;;;5.40;1.00;;;;;;4993310;28;20203;-68
2022/12/07 04:56:24;;;;;;;13.70;8.63;;;5.40;1.00;;;;;;4992634;28;20213;-68
2022/12/07 04:58:51;;;;;;;9.57;8.10;;;5.40;1.00;;;;;;4993475;28;20212;-67
2022/12/07 05:01:17;;;;;;;13.37;7.90;;;5.40;1.00;;;;;;4992403;28;20173;-68
2022/12/07 05:03:43;;;;;;;9.97;8.10;;;5.40;1.00;;;;;;4993364;28;20430;-66
2022/12/07 05:06:10;;;;;;;9.80;8.80;;;5.40;1.00;;;;;;4992436;28;20848;-66
2022/12/07 05:08:36;;;;;;;14.67;9.70;;;5.40;1.00;;;;;;4993685;28;20436;-67
2022/12/07 05:11:03;;;;;;;11.50;8.43;;;5.40;1.00;;;;;;4991791;28;20416;-67
2022/12/07 05:13:28;;;;;;;10.40;8.80;;;5.50;1.00;;;;;;4993102;28;20745;-67
2022/12/07 05:15:54;;;;;;;12.23;9.33;;;5.40;1.00;;;;;;4993021;28;20574;-66
2022/12/07 05:18:20;;;;;;;12.97;8.90;;;5.30;1.00;;;;;;4992590;28;20212;-67
2022/12/07 05:20:46;;;;;;;13.80;8.00;;;5.20;1.00;;;;;;4991830;28;21089;-67
2022/12/07 05:23:11;;;;;;;10.63;8.27;;;5.10;1.00;;;;;;4992603;28;20169;-67
2022/12/07 05:25:37;;;;;;;12.07;8.27;;;5.20;1.00;;;;;;4991983;28;20169;-65
2022/12/07 05:28:04;;;;;;;9.10;7.97;;;5.30;1.00;;;;;;4992660;28;20275;-66
2022/12/07 05:30:30;;;;;;;14.27;8.17;;;5.30;1.00;;;;;;4991666;28;20460;-67
2022/12/07 05:32:55;;;;;;;10.80;7.23;;;5.30;1.00;;;;;;4992538;28;20456;-68
2022/12/07 05:35:21;;;;;;;8.40;6.80;;;5.30;1.00;;;;;;4992100;28;20179;-65
2022/12/07 05:37:47;;;;;;;9.70;7.50;;;5.30;1.00;;;;;;4992493;28;20577;-66
2022/12/07 05:40:13;;;;;;;19.80;7.33;;;5.30;1.00;;;;;;4991719;28;20397;-64
2022/12/07 05:42:40;;;;;;;10.17;7.30;;;5.30;99.90;;;;;;4991166;28;20181;-64
2022/12/07 05:45:07;;;;;;;12.40;7.20;;;5.40;99.90;;;;;;4991778;28;20404;-66
2022/12/07 05:47:32;;;;;;;14.47;7.60;;;5.40;99.90;;;;;;4992001;28;20459;-66
2022/12/07 05:49:58;;;;;;;12.37;8.30;;;5.40;99.90;;;;;;4990587;28;20416;-65
2022/12/07 05:52:24;;;;;;;8.03;6.40;;;5.40;99.90;;;;;;4991197;28;20255;-65
2022/12/07 05:54:50;;;;;;;14.03;7.67;;;5.40;99.90;;;;;;4991394;28;20177;-63
2022/12/07 05:57:16;;;;;;;17.27;8.30;;;5.40;99.90;;;;;;4991440;28;20216;-63
2022/12/07 05:59:41;;;;;;;25.93;8.23;;;5.30;99.90;;;;;;4989792;28;20173;-64
2022/12/07 06:02:10;;;;;;;15.70;8.33;;;5.30;99.90;;;;;;4991080;28;20921;-65
2022/12/07 06:04:42;;;;;;;15.80;9.00;;;5.40;99.90;;;;;;4983720;28;20209;-65
2022/12/07 06:07:08;;;;;;;14.57;10.10;;;5.40;99.90;;;;;;4987729;28;20570;-64
2022/12/07 06:09:34;;;;;;;10.07;8.13;;;5.40;99.90;;;;;;4990153;28;20437;-65
2022/12/07 06:14:45;;;;;;;13.47;8.20;;;5.40;99.90;;;;;;4991190;28;20542;-64
2022/12/07 06:17:11;;;;;;;15.30;6.70;;;5.40;99.90;;;;;;4991838;28;20471;-64
2022/12/07 06:19:38;;;;;;;22.70;9.07;;;5.40;99.90;;;;;;4991650;28;20889;-63
2022/12/07 06:22:04;;;;;;;12.77;8.27;;;5.40;99.90;;;;;;4988817;28;20444;-63
2022/12/07 06:24:30;;;;;;;11.93;7.30;;;5.50;99.90;;;;;;4991336;28;20415;-63
2022/12/07 06:26:56;;;;;;;17.03;9.20;;;5.40;99.90;;;;;;4982806;28;20446;-63
2022/12/07 06:29:22;;;;;;;14.27;7.77;;;5.40;99.90;;;;;;4990631;28;20428;-62
2022/12/07 06:31:49;;;;;;;14.23;9.00;;;5.40;99.90;;;;;;4990722;28;20543;-61
2022/12/07 06:34:17;;;;;;;41.20;11.63;;;5.40;99.90;;;;;;4991392;28;20452;-62
2022/12/07 06:36:43;;;;;;;35.23;11.00;;;5.40;99.90;;;;;;4992914;28;20468;-64
2022/12/07 06:39:10;;;;;;;19.13;9.30;;;5.40;99.90;;;;;;4992314;28;20862;-63
2022/12/07 06:41:37;;;;;;;39.13;11.10;;;5.30;99.90;;;;;;5005889;28;20421;-65
2022/12/07 06:44:03;;;;;;;52.00;13.13;;;5.40;99.90;;;;;;4992448;28;20420;-65
2022/12/07 06:46:29;;;;;;;24.30;10.60;;;5.40;99.90;;;;;;4990439;28;20412;-63
2022/12/07 06:48:55;;;;;;;15.27;8.47;;;5.40;99.90;;;;;;4991694;28;20582;-65
2022/12/07 06:51:21;;;;;;;41.00;11.07;;;5.30;99.90;;;;;;4990324;28;20432;-61
2022/12/07 06:53:47;;;;;;;21.30;10.10;;;5.30;99.90;;;;;;4991431;28;20177;-66
2022/12/07 06:56:13;;;;;;;23.97;9.10;;;5.30;99.90;;;;;;4991462;28;20235;-63
2022/12/07 06:58:39;;;;;;;45.83;11.00;;;5.30;99.90;;;;;;4991195;28;20235;-64
2022/12/07 07:01:15;;;;;;;23.00;8.93;;;5.30;99.90;;;;;;4989987;28;20450;-65
2022/12/07 07:03:41;;;;;;;17.87;8.37;;;5.40;99.90;;;;;;4990360;28;20423;-64
2022/12/07 07:06:07;;;;;;;14.90;8.53;;;5.30;99.90;;;;;;4992447;28;20504;-64
2022/12/07 07:08:38;;;;;;;39.80;10.23;;;5.30;99.90;;;;;;4991983;28;20435;-67
2022/12/07 07:11:04;;;;;;;17.83;8.80;;;5.20;99.90;;;;;;4988213;28;20928;-63
2022/12/07 07:13:30;;;;;;;17.20;7.37;;;5.30;99.90;;;;;;4990426;28;20939;-67
2022/12/07 07:15:56;;;;;;;175.60;22.03;;;5.40;99.90;;;;;;4990700;28;20440;-67
2022/12/07 07:18:22;;;;;;;58.93;13.30;;;5.40;99.90;;;;;;4988898;28;20946;-67
2022/12/07 07:20:47;;;;;;;63.83;12.77;;;5.50;99.90;;;;;;4990719;28;20527;-65
2022/12/07 07:23:13;;;;;;;32.40;9.17;;;5.50;99.90;;;;;;4995645;28;20506;-65
2022/12/07 07:25:39;;;;;;;17.43;8.63;;;5.50;99.90;;;;;;4993249;28;20228;-65
2022/12/07 07:28:05;;;;;;;33.27;8.80;;;5.50;99.90;;;;;;4993190;28;20228;-64
2022/12/07 07:30:31;;;;;;;29.63;8.87;;;5.40;99.90;;;;;;4993239;28;20177;-66
2022/12/07 07:33:01;;;;;;;18.67;7.60;;;5.50;99.90;;;;;;4992459;28;20195;-66
2022/12/07 07:35:28;;;;;;;22.33;7.83;;;5.50;99.90;;;;;;4991898;28;20416;-67
2022/12/07 07:37:54;;;;;;;18.23;8.10;;;5.50;99.90;;;;;;4986507;28;20547;-63
2022/12/07 07:40:20;;;;;;;28.83;7.97;;;5.50;99.90;;;;;;4988626;28;20432;-65
2022/12/07 07:42:51;;;;;;;25.20;8.27;;;6.00;99.90;;;;;;4989457;28;20498;-63
2022/12/07 07:45:18;;;;;;;16.53;8.37;;;7.60;99.90;;;;;;4990976;28;20404;-66
2022/12/07 07:47:43;;;;;;;16.37;10.33;;;8.40;99.90;;;;;;4989546;28;20476;-66
2022/12/07 07:50:09;;;;;;;17.73;9.97;;;8.30;99.90;;;;;;4987387;28;20809;-66
2022/12/07 07:52:35;;;;;;;16.13;8.77;;;9.00;99.90;;;;;;4990364;28;20172;-66
2022/12/07 07:55:01;;;;;;;9.43;8.27;;;8.10;99.90;;;;;;4990361;28;20428;-66
2022/12/07 07:57:27;;;;;;;12.90;8.47;;;7.90;99.90;;;;;;4990948;28;20711;-66
2022/12/07 07:59:53;;;;;;;8.93;7.27;;;9.90;99.90;;;;;;4991311;28;20180;-65
2022/12/07 08:02:20;;;;;;;10.63;8.60;;;11.60;99.90;;;;;;4990405;28;20237;-65
2022/12/07 08:04:46;;;;;;;56.27;12.07;;;13.20;99.90;;;;;;4990784;28;20268;-65
2022/12/07 08:07:13;;;;;;;18.60;11.23;;;14.50;99.90;;;;;;4991087;28;20510;-67
2022/12/07 08:09:39;;;;;;;64.70;15.40;;;;;;;;;;4990815;28;20407;-66
2022/12/07 08:12:05;;;;;;;69.33;18.33;;;15.50;99.90;;;;;;4988560;28;20435;-67
2022/12/07 08:14:31;;;;;;;45.70;12.03;;;16.10;99.90;;;;;;4991039;28;20872;-66
2022/12/07 08:16:57;;;;;;;40.03;12.73;;;15.40;99.90;;;;;;4990624;28;20209;-68
2022/12/07 08:19:23;;;;;;;51.97;13.73;;;15.30;99.90;;;;;;4990697;28;20260;-65
2022/12/07 08:21:48;;;;;;;40.10;12.30;;;16.50;99.90;;;;;;4992563;28;20263;-64
2022/12/07 08:24:14;;;;;;;16.63;10.20;;;16.60;99.90;;;;;;4994031;28;20239;-67
2022/12/07 08:26:40;;;;;;;27.83;10.60;;;15.90;99.90;;;;;;4993614;28;20177;-65
2022/12/07 08:29:06;;;;;;;15.83;8.80;;;16.70;99.90;;;;;;4995052;28;20247;-66
2022/12/07 08:31:32;;;;;;;18.07;11.10;;;17.00;99.90;;;;;;4994501;28;20841;-67
2022/12/07 08:33:57;;;;;;;12.63;8.67;;;17.50;99.90;;;;;;4993916;28;20191;-67
2022/12/07 08:36:23;;;;;;;14.77;9.10;;;17.00;99.90;;;;;;4995857;28;20225;-65
2022/12/07 08:38:49;;;;;;;11.70;9.30;;;14.60;99.90;;;;;;4994370;28;20197;-66
2022/12/07 08:41:16;;;;;;;10.40;9.37;;;12.90;99.90;;;;;;4991870;28;20177;-67
2022/12/07 08:43:42;;;;;;;17.50;9.20;;;12.00;99.90;;;;;;4994155;28;20470;-64
2022/12/07 08:46:23;;;;;;;10.40;8.80;;;11.00;99.90;;;;;;4994258;28;20436;-66
2022/12/07 08:49:03;;;;;;;13.70;9.00;;;10.30;99.90;;;;;;5031334;23;20501;-69
2022/12/07 08:51:29;;;;;;;15.70;9.43;;;9.80;99.90;;;;;;5038060;28;20485;-68
2022/12/07 08:53:57;;;;;;;15.23;9.07;;;9.60;99.90;;;;;;5039102;28;20419;-67
2022/12/07 08:56:24;;;;;;;11.63;8.77;;;9.40;99.90;;;;;;5037600;28;20672;-66
2022/12/07 08:58:50;;;;;;;13.50;8.63;;;9.40;99.90;;;;;;5048642;28;20430;-66
2022/12/07 09:01:16;;;;;;;11.27;8.10;;;9.20;99.90;;;;;;5053776;28;20435;-66
2022/12/07 09:03:41;;;;;;;12.90;8.10;;;8.90;99.90;;;;;;5053872;28;20216;-67
2022/12/07 09:06:08;;;;;;;17.57;8.13;;;8.80;99.90;;;;;;5052056;28;20564;-67
2022/12/07 09:08:39;;;;;;;23.30;7.30;;;8.60;99.90;;;;;;5052653;28;20270;-67
2022/12/07 09:11:04;;;;;;;30.40;9.57;;;8.50;99.90;;;;;;5050725;28;20406;-69
2022/12/07 09:13:33;;;;;;;18.50;8.17;;;8.50;99.90;;;;;;5052028;28;20408;-67
2022/12/07 09:15:58;;;;;;;257.03;30.40;;;8.50;99.90;;;;;;5051973;28;20220;-68
2022/12/07 09:18:24;;;;;;;24.60;7.50;;;8.50;99.90;;;;;;5051970;28;20464;-68
2022/12/07 09:20:50;;;;;;;64.07;12.60;;;8.50;99.90;;;;;;5052955;28;20179;-69
2022/12/07 09:23:16;;;;;;;39.17;8.10;;;8.30;99.90;;;;;;5054731;28;20175;-69
2022/12/07 09:25:42;;;;;;;15.97;7.07;;;8.30;99.90;;;;;;5053851;28;20451;-68
2022/12/07 09:28:08;;;;;;;17.43;8.00;;;8.30;99.90;;;;;;5054009;28;20199;-69
2022/12/07 09:30:34;;;;;;;11.87;6.70;;;8.10;99.90;;;;;;5053197;28;20956;-70
2022/12/07 09:32:59;;;;;;;7.20;5.30;;;8.10;99.90;;;;;;5053872;28;20532;-68
2022/12/07 09:35:25;;;;;;;9.33;5.43;;;7.90;99.90;;;;;;5053735;28;20258;-69
2022/12/07 09:37:51;;;;;;;7.13;5.33;;;8.00;99.90;;;;;;5054138;28;20203;-68
2022/12/07 09:40:20;;;;;;;10.13;5.63;;;8.00;99.90;;;;;;5053578;28;20179;-68
2022/12/07 09:42:52;;;;;;;23.83;7.30;;;7.80;99.90;;;;;;5053339;28;20163;-67
2022/12/07 09:45:23;;;;;;;54.47;10.00;;;7.90;99.90;;;;;;5054009;28;20950;-70
2022/12/07 09:47:49;;;;;;;34.03;9.27;;;8.00;99.90;;;;;;5053791;28;20878;-68
2022/12/07 09:50:19;;;;;;;35.60;9.43;;;8.00;99.90;;;;;;5053246;28;20407;-69
2022/12/07 09:52:47;;;;;;;15.23;6.80;;;8.00;99.90;;;;;;5053561;28;20171;-68
2022/12/07 09:55:24;;;;;;;9.60;5.77;;;8.00;99.90;;;;;;5053403;28;20492;-68
2022/12/07 09:57:51;;;;;;;5.93;5.00;;;7.80;99.90;;;;;;5053121;28;20464;-69
2022/12/07 10:00:22;;;;;;;15.57;6.53;;;7.70;99.90;;;;;;5053541;28;20393;-69
2022/12/07 10:02:50;;;;;;;20.20;6.07;;;7.80;99.90;;;;;;5054070;28;20802;-70
2022/12/07 10:05:25;;;;;;;23.93;7.07;;;7.80;99.90;;;;;;5053660;28;20416;-68
2022/12/07 10:07:51;;;;;;;42.63;9.30;;;7.90;99.90;;;;;;5054092;28;20433;-67
2022/12/07 10:10:38;;;;;;;24.50;7.57;;;8.10;99.90;;;;;;5053285;28;20444;-69
2022/12/07 10:13:10;;;;;;;23.10;5.37;;;8.20;99.90;;;;;;5053840;28;20417;-69
2022/12/07 10:15:46;;;;;;;34.60;7.97;;;8.20;99.90;;;;;;5053825;28;20414;-69
2022/12/07 10:18:32;;;;;;;41.17;7.63;;;8.20;99.90;;;;;;5053798;28;20457;-68
2022/12/07 10:21:23;;;;;;;6.50;4.23;;;8.40;99.90;;;;;;5052319;28;20409;-68
2022/12/07 10:24:01;;;;;;;10.77;4.57;;;8.40;99.90;;;;;;5053612;28;20394;-69
2022/12/07 10:26:34;;;;;;;7.80;5.20;;;8.30;99.90;;;;;;5052941;28;20445;-69
2022/12/07 10:29:14;;;;;;;13.77;4.77;;;8.40;99.90;;;;;;5053251;28;20788;-69
2022/12/07 10:31:41;;;;;;;16.57;5.90;;;8.60;99.90;;;;;;5052002;28;20909;-68
2022/12/07 10:34:26;;;;;;;6.37;4.40;;;8.80;99.90;;;;;;5034393;28;20445;-68
2022/12/07 10:36:53;;;;;;;11.53;5.23;;;9.00;99.90;;;;;;5031598;28;20770;-68
2022/12/07 10:39:21;;;;;;;20.83;5.47;;;9.00;99.90;;;;;;5031640;28;20853;-70
2022/12/07 10:41:59;;;;;;;13.83;6.03;;;8.80;99.90;;;;;;5031307;28;20413;-68
2022/12/07 10:44:30;;;;;;;7.17;5.63;;;8.90;99.90;;;;;;5032610;28;20470;-68
2022/12/07 10:47:14;;;;;;;5.83;4.50;;;8.80;99.90;;;;;;5032786;28;20406;-66
2022/12/07 10:50:19;;;;;;;7.10;4.70;;;8.60;99.90;;;;;;5032487;28;20449;-68
2022/12/07 10:53:05;;;;;;;7.33;4.40;;;8.50;99.90;;;;;;5000546;28;20950;-68
2022/12/07 10:55:46;;;;;;;4.70;4.10;;;8.50;99.90;;;;;;5031716;28;20406;-69
2022/12/07 10:58:39;;;;;;;11.57;4.23;;;8.40;99.90;;;;;;5032155;28;20461;-69
2022/12/07 11:01:32;;;;;;;6.63;3.77;;;8.40;99.90;;;;;;5031252;28;20398;-69
2022/12/07 11:04:41;;;;;;;5.33;3.50;;;8.50;99.90;;;;;;5030634;28;20440;-68
2022/12/07 11:07:39;;;;;;;10.30;3.77;;;8.60;99.90;;;;;;5030154;28;20418;-66
2022/12/07 11:10:19;;;;;;;43.57;8.27;;;8.60;99.90;;;;;;5029469;28;20493;-67
2022/12/07 11:12:56;;;;;;;25.00;6.13;;;8.60;99.90;;;;;;5029829;28;20414;-67
2022/12/07 11:15:45;;;;;;;14.67;4.43;;;8.60;99.90;;;;;;5030153;28;20408;-68
2022/12/07 11:18:22;;;;;;;35.27;5.20;;;8.40;99.90;;;;;;5029913;28;21031;-69
2022/12/07 11:21:12;;;;;;;9.10;3.93;;;8.40;99.90;;;;;;5029463;28;20410;-67
2022/12/07 11:24:06;;;;;;;6.50;4.03;;;8.30;99.90;;;;;;5030339;28;20884;-69
2022/12/07 11:27:02;;;;;;;8.00;4.40;;;8.30;99.90;;;;;;5029726;28;20403;-68
2022/12/07 11:29:33;;;;;;;29.57;5.93;;;8.40;99.90;;;;;;5029960;28;20430;-67
2022/12/07 11:32:25;;;;;;;9.90;3.60;;;8.40;99.90;;;;;;5028919;28;20484;-67
2022/12/07 11:35:16;;;;;;;41.73;6.97;;;8.30;99.90;;;;;;5029139;28;20430;-67
2022/12/07 11:37:43;;;;;;;24.30;6.00;;;8.20;99.90;;;;;;5030321;28;20458;-68
2022/12/07 11:40:19;;;;;;;21.73;6.50;;;8.30;99.90;;;;;;5029429;28;20954;-68
2022/12/07 11:43:01;;;;;;;6.00;3.60;;;8.50;99.90;;;;;;5038702;28;20938;-69
2022/12/07 11:45:31;;;;;;;6.57;4.10;;;8.50;99.90;;;;;;5051280;28;20477;-68
2022/12/07 11:48:04;;;;;;;4.73;3.30;;;8.50;99.90;;;;;;5051467;28;20449;-67
2022/12/07 11:50:53;;;;;;;6.83;3.80;;;8.50;99.90;;;;;;5050539;28;20409;-66
2022/12/07 11:53:23;;;;;;;7.87;4.47;;;8.50;99.90;;;;;;5050804;28;20842;-70
2022/12/07 11:55:56;;;;;;;9.03;4.40;;;8.40;99.90;;;;;;5052194;28;20406;-68
2022/12/07 11:58:52;;;;;;;14.33;4.80;;;8.50;99.90;;;;;;5054527;28;20461;-66
2022/12/07 12:01:38;;;;;;;19.00;6.50;;;8.50;99.90;;;;;;5054775;28;20404;-68
2022/12/07 12:04:09;;;;;;;19.87;5.30;;;8.50;99.90;;;;;;5055710;28;20409;-69
2022/12/07 12:06:39;;;;;;;35.30;5.50;;;8.60;99.90;;;;;;5055583;28;20739;-69
2022/12/07 12:09:34;;;;;;;46.93;7.83;;;8.50;99.90;;;;;;5055526;28;20529;-70
2022/12/07 12:12:45;;;;;;;63.70;9.20;;;8.50;99.90;;;;;;5053742;28;20410;-69
2022/12/07 12:15:35;;;;;;;36.03;7.20;;;8.60;99.90;;;;;;5055629;28;20444;-68
2022/12/07 12:18:16;;;;;;;20.03;4.17;;;8.50;99.90;;;;;;5055337;28;20965;-68
2022/12/07 12:21:11;;;;;;;31.80;5.97;;;8.40;99.90;;;;;;5054403;28;20401;-70
2022/12/07 12:23:45;;;;;;;123.10;14.87;;;8.50;99.90;;;;;;5044684;28;20417;-69
2022/12/07 12:26:22;;;;;;;42.60;7.93;;;8.60;99.90;;;;;;5055816;28;20762;-67
2022/12/07 12:28:54;;;;;;;87.77;14.30;;;8.60;99.90;;;;;;5055494;28;20432;-70
2022/12/07 12:31:22;;;;;;;43.47;8.63;;;8.50;99.90;;;;;;5055114;28;20439;-69
2022/12/07 12:34:02;;;;;;;7.50;3.83;;;8.50;99.90;;;;;;5040858;28;20541;-68
2022/12/07 12:36:32;;;;;;;22.03;5.77;;;8.40;99.90;;;;;;5034898;28;20857;-69
2022/12/07 12:39:13;;;;;;;29.03;5.50;;;8.30;99.90;;;;;;5035528;28;20500;-69
2022/12/07 12:41:39;;;;;;;18.20;5.43;;;8.40;99.90;;;;;;5033115;28;20414;-69
2022/12/07 12:44:19;;;;;;;8.23;3.43;;;8.50;99.90;;;;;;5035508;28;20767;-69
2022/12/07 12:46:53;;;;;;;7.87;3.63;;;8.40;99.90;;;;;;5035225;28;20398;-68
2022/12/07 12:49:19;;;;;;;9.10;4.03;;;8.40;99.90;;;;;;5035011;28;20540;-67
2022/12/07 12:51:49;;;;;;;6.40;4.10;;;8.30;99.90;;;;;;5034303;28;20428;-69
2022/12/07 12:54:19;;;;;;;7.50;3.73;;;8.20;99.90;;;;;;5035205;28;20267;-69
2022/12/07 12:57:09;;;;;;;7.30;3.30;;;8.00;99.90;;;;;;5034909;28;20446;-68
2022/12/07 12:59:53;;;;;;;5.20;3.60;;;8.10;99.90;;;;;;5035741;28;20422;-69
2022/12/07 13:02:30;;;;;;;9.13;3.07;;;8.20;99.90;;;;;;5034943;28;20406;-69
2022/12/07 13:05:03;;;;;;;4.10;3.67;;;8.20;99.90;;;;;;5035454;28;20413;-69
2022/12/07 13:07:48;;;;;;;12.60;4.00;;;8.30;99.90;;;;;;5033994;28;20570;-69
2022/12/07 13:10:29;;;;;;;9.60;4.30;;;8.30;99.90;;;;;;5034681;28;20479;-67
2022/12/07 13:13:04;;;;;;;4.40;4.00;;;8.30;99.90;;;;;;5035622;28;20776;-68
2022/12/07 13:15:43;;;;;;;4.63;3.40;;;8.30;99.90;;;;;;5034957;28;20446;-68